createdAt,value
2018-09-20T00:00:12.706Z,63.15
2018-09-20T00:00:38.842Z,63.31
2018-09-20T00:01:04.970Z,63.79
2018-09-20T00:01:31.107Z,63.6
2018-09-20T00:01:57.263Z,63.5
2018-09-20T00:02:23.397Z,63.5
2018-09-20T00:02:49.559Z,63.31
2018-09-20T00:03:15.712Z,63.54
2018-09-20T00:03:41.842Z,63.44
2018-09-20T00:04:07.974Z,63.06
2018-09-20T00:04:34.118Z,63.24
2018-09-20T00:05:00.253Z,63.02
2018-09-20T00:05:26.390Z,63.73
2018-09-20T00:05:52.522Z,63.34
2018-09-20T00:06:18.662Z,62.96
2018-09-20T00:06:44.820Z,62.93
2018-09-20T00:07:10.955Z,63.15
2018-09-20T00:07:37.093Z,63.24
2018-09-20T00:08:03.244Z,63.06
2018-09-20T00:08:29.370Z,63.15
2018-09-20T00:08:55.525Z,63.24
2018-09-20T00:09:21.658Z,63.44
2018-09-20T00:09:47.786Z,63.15
2018-09-20T00:10:13.967Z,63.63
2018-09-20T00:10:40.101Z,63.44
2018-09-20T00:11:06.237Z,63.24
2018-09-20T00:11:32.391Z,63.24
2018-09-20T00:11:58.525Z,63.54
2018-09-20T00:12:24.656Z,63.21
2018-09-20T00:12:50.792Z,63.44
2018-09-20T00:13:16.960Z,63.54
2018-09-20T00:13:43.095Z,63.31
2018-09-20T00:14:09.252Z,63.02
2018-09-20T00:14:35.401Z,63.31
2018-09-20T00:15:01.541Z,63.5
2018-09-20T00:15:27.696Z,63.98
2018-09-20T00:15:53.854Z,63.98
2018-09-20T00:16:19.987Z,64.08
2018-09-20T00:16:46.128Z,64.18
2018-09-20T00:17:12.256Z,64.28
2018-09-20T00:17:38.390Z,64.18
2018-09-20T00:18:04.524Z,64.18
2018-09-20T00:18:30.652Z,64.37
2018-09-20T00:18:56.786Z,64.28
2018-09-20T00:19:22.922Z,64.08
2018-09-20T00:19:49.059Z,64.08
2018-09-20T00:20:15.216Z,64.08
2018-09-20T00:20:41.353Z,63.98
2018-09-20T00:21:07.487Z,64.37
2018-09-20T00:21:33.667Z,64.28
2018-09-20T00:21:59.803Z,64.37
2018-09-20T00:22:25.959Z,63.89
2018-09-20T00:22:52.141Z,64.08
2018-09-20T00:23:18.311Z,64.18
2018-09-20T00:23:44.444Z,64.37
2018-09-20T00:24:10.630Z,64.66
2018-09-20T00:24:36.764Z,64.66
2018-09-20T00:25:02.900Z,64.37
2018-09-20T00:25:29.031Z,63.98
2018-09-20T00:25:55.165Z,63.89
2018-09-20T00:26:21.293Z,63.98
2018-09-20T00:26:47.424Z,63.98
2018-09-20T00:27:13.574Z,63.79
2018-09-20T00:27:39.716Z,63.79
2018-09-20T00:28:05.881Z,63.7
2018-09-20T00:28:32.020Z,63.7
2018-09-20T00:28:58.156Z,63.5
2018-09-20T00:29:24.331Z,63.98
2018-09-20T00:29:50.471Z,63.98
2018-09-20T00:30:16.604Z,63.98
2018-09-20T00:30:42.739Z,63.89
2018-09-20T00:31:08.874Z,63.79
2018-09-20T00:31:35.007Z,63.79
2018-09-20T00:32:01.147Z,63.79
2018-09-20T00:32:27.323Z,63.6
2018-09-20T00:32:53.480Z,63.7
2018-09-20T00:33:19.611Z,63.6
2018-09-20T00:33:45.772Z,63.98
2018-09-20T00:34:11.928Z,63.7
2018-09-20T00:34:38.061Z,63.79
2018-09-20T00:35:04.198Z,63.6
2018-09-20T00:35:30.329Z,64.08
2018-09-20T00:35:56.461Z,64.28
2018-09-20T00:36:22.601Z,63.79
2018-09-20T00:36:48.732Z,64.56
2018-09-20T00:37:14.870Z,64.08
2018-09-20T00:37:41.033Z,64.66
2018-09-20T00:38:07.160Z,63.41
2018-09-20T00:38:33.293Z,64.28
2018-09-20T00:38:59.433Z,64.47
2018-09-20T00:39:25.589Z,64.18
2018-09-20T00:39:51.728Z,64.37
2018-09-20T00:40:17.880Z,64.28
2018-09-20T00:40:44.020Z,64.18
2018-09-20T00:41:10.167Z,64.28
2018-09-20T00:41:36.303Z,64.47
2018-09-20T00:42:02.444Z,64.18
2018-09-20T00:42:28.579Z,64.28
2018-09-20T00:42:54.714Z,64.28
2018-09-20T00:43:20.850Z,64.18
2018-09-20T00:43:46.990Z,64.18
2018-09-20T00:44:13.131Z,64.28
2018-09-20T00:44:39.256Z,64.18
2018-09-20T00:45:05.391Z,64.37
2018-09-20T00:45:31.527Z,64.28
2018-09-20T00:45:57.669Z,64.18
2018-09-20T00:46:23.849Z,64.18
2018-09-20T00:46:49.981Z,64.18
2018-09-20T00:47:16.114Z,64.28
2018-09-20T00:47:42.249Z,64.37
2018-09-20T00:48:08.404Z,64.18
2018-09-20T00:48:34.541Z,64.28
2018-09-20T00:49:00.707Z,64.28
2018-09-20T00:49:26.895Z,64.28
2018-09-20T00:49:53.027Z,64.47
2018-09-20T00:50:19.163Z,64.18
2018-09-20T00:50:45.290Z,64.37
2018-09-20T00:51:11.428Z,64.76
2018-09-20T00:51:37.582Z,64.18
2018-09-20T00:52:03.719Z,64.18
2018-09-20T00:52:29.854Z,64.28
2018-09-20T00:52:55.990Z,63.98
2018-09-20T00:53:22.124Z,64.28
2018-09-20T00:53:48.251Z,64.08
2018-09-20T00:54:14.387Z,64.28
2018-09-20T00:54:40.525Z,64.28
2018-09-20T00:55:06.664Z,64.56
2018-09-20T00:55:32.800Z,64.76
2018-09-20T00:55:58.928Z,64.28
2018-09-20T00:56:25.060Z,64.28
2018-09-20T00:56:51.194Z,64.28
2018-09-20T00:57:17.357Z,64.28
2018-09-20T00:57:43.485Z,64.28
2018-09-20T00:58:09.616Z,64.66
2018-09-20T00:58:35.755Z,64.66
2018-09-20T00:59:01.891Z,64.47
2018-09-20T00:59:28.048Z,64.56
2018-09-20T00:59:54.186Z,64.37
2018-09-20T01:00:20.344Z,64.28
2018-09-20T01:00:46.501Z,64.18
2018-09-20T01:01:12.640Z,64.08
2018-09-20T01:01:38.773Z,64.18
2018-09-20T01:02:04.913Z,64.28
2018-09-20T01:02:31.093Z,64.18
2018-09-20T01:02:57.191Z,64.37
2018-09-20T01:03:23.330Z,64.28
2018-09-20T01:03:49.462Z,64.37
2018-09-20T01:04:15.597Z,65.14
2018-09-20T01:04:41.733Z,65.24
2018-09-20T01:05:07.888Z,64.95
2018-09-20T01:05:34.028Z,65.05
2018-09-20T01:06:00.165Z,64.95
2018-09-20T01:06:26.318Z,64.86
2018-09-20T01:06:52.454Z,65.05
2018-09-20T01:07:18.587Z,65.05
2018-09-20T01:07:44.725Z,65.24
2018-09-20T01:08:10.860Z,65.05
2018-09-20T01:08:37.000Z,64.76
2018-09-20T01:09:03.129Z,64.56
2018-09-20T01:09:29.255Z,64.76
2018-09-20T01:09:55.386Z,64.66
2018-09-20T01:10:21.580Z,65.14
2018-09-20T01:10:47.712Z,64.18
2018-09-20T01:11:13.867Z,64.18
2018-09-20T01:11:39.999Z,64.28
2018-09-20T01:12:06.137Z,63.98
2018-09-20T01:12:32.269Z,64.28
2018-09-20T01:12:58.405Z,64.37
2018-09-20T01:13:24.542Z,65.05
2018-09-20T01:13:50.683Z,65.24
2018-09-20T01:14:16.816Z,64.66
2018-09-20T01:14:42.952Z,65.63
2018-09-20T01:15:09.079Z,65.3
2018-09-20T01:15:35.215Z,65.3
2018-09-20T01:16:01.354Z,65.3
2018-09-20T01:16:27.511Z,65.3
2018-09-20T01:16:53.643Z,65.5
2018-09-20T01:17:19.804Z,65.01
2018-09-20T01:17:45.938Z,65.5
2018-09-20T01:18:12.100Z,65.14
2018-09-20T01:18:38.230Z,65.3
2018-09-20T01:19:04.358Z,65.2
2018-09-20T01:19:30.501Z,65.11
2018-09-20T01:19:56.629Z,65.11
2018-09-20T01:20:22.767Z,65.01
2018-09-20T01:20:48.905Z,65.11
2018-09-20T01:21:15.060Z,65.05
2018-09-20T01:21:41.196Z,65.24
2018-09-20T01:22:07.330Z,65.33
2018-09-20T01:22:33.462Z,65.33
2018-09-20T01:22:59.599Z,65.3
2018-09-20T01:23:25.752Z,65.11
2018-09-20T01:23:51.888Z,65.59
2018-09-20T01:24:18.029Z,65.5
2018-09-20T01:24:44.193Z,65.78
2018-09-20T01:25:10.339Z,65.88
2018-09-20T01:25:36.497Z,65.59
2018-09-20T01:26:02.636Z,65.78
2018-09-20T01:26:28.761Z,65.98
2018-09-20T01:26:54.903Z,66.07
2018-09-20T01:27:21.037Z,66.17
2018-09-20T01:27:47.172Z,65.98
2018-09-20T01:28:13.329Z,65.78
2018-09-20T01:28:39.496Z,66.55
2018-09-20T01:29:05.655Z,66.36
2018-09-20T01:29:31.786Z,66.17
2018-09-20T01:29:57.922Z,66.17
2018-09-20T01:30:24.088Z,66.36
2018-09-20T01:30:50.222Z,66.36
2018-09-20T01:31:16.359Z,66.36
2018-09-20T01:31:42.497Z,66.36
2018-09-20T01:32:08.664Z,66.07
2018-09-20T01:32:34.804Z,66.17
2018-09-20T01:33:00.941Z,66.27
2018-09-20T01:33:27.104Z,66.55
2018-09-20T01:33:53.237Z,66.75
2018-09-20T01:34:19.396Z,66.75
2018-09-20T01:34:45.532Z,66.94
2018-09-20T01:35:11.668Z,66.55
2018-09-20T01:35:37.823Z,66.85
2018-09-20T01:36:03.974Z,66.85
2018-09-20T01:36:30.132Z,67.03
2018-09-20T01:36:56.268Z,66.75
2018-09-20T01:37:22.404Z,66.75
2018-09-20T01:37:48.559Z,66.52
2018-09-20T01:38:14.694Z,66.55
2018-09-20T01:38:40.828Z,67.19
2018-09-20T01:39:06.964Z,67.03
2018-09-20T01:39:33.123Z,66.65
2018-09-20T01:39:59.254Z,66.65
2018-09-20T01:40:25.416Z,66.75
2018-09-20T01:40:51.548Z,66.75
2018-09-20T01:41:17.703Z,66.55
2018-09-20T01:41:43.838Z,66.65
2018-09-20T01:42:09.981Z,66.36
2018-09-20T01:42:36.149Z,66.55
2018-09-20T01:43:02.303Z,66.55
2018-09-20T01:43:28.434Z,66.75
2018-09-20T01:43:54.610Z,66.81
2018-09-20T01:44:20.747Z,66.94
2018-09-20T01:44:46.883Z,66.94
2018-09-20T01:45:13.022Z,66.65
2018-09-20T01:45:39.174Z,67.23
2018-09-20T01:46:05.308Z,67.03
2018-09-20T01:46:31.441Z,66.65
2018-09-20T01:46:57.577Z,66.65
2018-09-20T01:47:23.712Z,66.55
2018-09-20T01:47:49.845Z,66.55
2018-09-20T01:48:15.981Z,66.65
2018-09-20T01:48:42.124Z,66.75
2018-09-20T01:49:08.253Z,66.81
2018-09-20T01:49:34.391Z,66.55
2018-09-20T01:50:00.519Z,66.55
2018-09-20T01:50:26.655Z,66.55
2018-09-20T01:50:52.794Z,66.75
2018-09-20T01:51:18.939Z,67
2018-09-20T01:51:45.062Z,67.19
2018-09-20T01:52:11.201Z,67.23
2018-09-20T01:52:37.332Z,66.91
2018-09-20T01:53:03.486Z,66.91
2018-09-20T01:53:29.639Z,67.19
2018-09-20T01:53:55.778Z,67.68
2018-09-20T01:54:21.912Z,67.39
2018-09-20T01:54:48.045Z,67.39
2018-09-20T01:55:14.183Z,67.39
2018-09-20T01:55:40.313Z,67.19
2018-09-20T01:56:06.469Z,67
2018-09-20T01:56:32.643Z,67.39
2018-09-20T01:56:58.786Z,67.19
2018-09-20T01:57:24.918Z,67.58
2018-09-20T01:57:51.054Z,67
2018-09-20T01:58:17.217Z,67.19
2018-09-20T01:58:43.350Z,67.19
2018-09-20T01:59:09.491Z,67.39
2018-09-20T01:59:35.621Z,67.29
2018-09-20T02:00:01.762Z,67.23
2018-09-20T02:00:27.893Z,67.03
2018-09-20T02:00:54.028Z,67.23
2018-09-20T02:01:20.186Z,66.91
2018-09-20T02:01:46.346Z,67.39
2018-09-20T02:02:12.498Z,67.29
2018-09-20T02:02:38.661Z,67.77
2018-09-20T02:03:04.815Z,67.97
2018-09-20T02:03:30.979Z,67.77
2018-09-20T02:03:57.139Z,67.97
2018-09-20T02:04:23.268Z,67.77
2018-09-20T02:04:49.402Z,67.87
2018-09-20T02:05:15.570Z,67.77
2018-09-20T02:05:41.703Z,67.77
2018-09-20T02:06:07.857Z,67.58
2018-09-20T02:06:33.991Z,68.44
2018-09-20T02:07:00.126Z,68.51
2018-09-20T02:07:26.256Z,68.54
2018-09-20T02:07:52.415Z,68.44
2018-09-20T02:08:18.571Z,68.54
2018-09-20T02:08:44.747Z,67.77
2018-09-20T02:09:10.892Z,67.68
2018-09-20T02:09:37.030Z,67.97
2018-09-20T02:10:03.163Z,68.54
2018-09-20T02:10:29.326Z,68.44
2018-09-20T02:10:55.508Z,68.35
2018-09-20T02:11:21.638Z,68.06
2018-09-20T02:11:47.793Z,67.97
2018-09-20T02:12:13.931Z,67.97
2018-09-20T02:12:40.067Z,67.87
2018-09-20T02:13:06.199Z,67.68
2018-09-20T02:13:32.336Z,68.06
2018-09-20T02:13:58.466Z,68.44
2018-09-20T02:14:24.619Z,68.44
2018-09-20T02:14:50.761Z,68.44
2018-09-20T02:15:16.897Z,68.54
2018-09-20T02:15:43.056Z,68.16
2018-09-20T02:16:09.198Z,68.26
2018-09-20T02:16:35.326Z,68.44
2018-09-20T02:17:01.459Z,68.51
2018-09-20T02:17:27.593Z,68.64
2018-09-20T02:17:53.730Z,68.51
2018-09-20T02:18:19.857Z,68.9
2018-09-20T02:18:45.995Z,68.74
2018-09-20T02:19:12.129Z,68.54
2018-09-20T02:19:38.260Z,68.93
2018-09-20T02:20:04.391Z,69.18
2018-09-20T02:20:30.520Z,69.09
2018-09-20T02:20:56.671Z,69.38
2018-09-20T02:21:22.832Z,68.9
2018-09-20T02:21:48.974Z,69.12
2018-09-20T02:22:15.109Z,68.7
2018-09-20T02:22:41.243Z,68.44
2018-09-20T02:23:07.402Z,68.64
2018-09-20T02:23:33.540Z,68.84
2018-09-20T02:23:59.675Z,68.7
2018-09-20T02:24:25.820Z,68.54
2018-09-20T02:24:51.948Z,68.8
2018-09-20T02:25:18.080Z,68.54
2018-09-20T02:25:44.218Z,68.35
2018-09-20T02:26:10.350Z,68.44
2018-09-20T02:26:36.525Z,68.44
2018-09-20T02:27:02.661Z,68.64
2018-09-20T02:27:28.797Z,68.93
2018-09-20T02:27:54.934Z,69.02
2018-09-20T02:28:21.069Z,68.93
2018-09-20T02:28:47.208Z,68.84
2018-09-20T02:29:13.348Z,69.38
2018-09-20T02:29:39.481Z,69.28
2018-09-20T02:30:05.618Z,69.18
2018-09-20T02:30:31.771Z,69.09
2018-09-20T02:30:57.929Z,68.99
2018-09-20T02:31:24.074Z,68.99
2018-09-20T02:31:50.229Z,68.99
2018-09-20T02:32:16.361Z,69.38
2018-09-20T02:32:42.549Z,69.57
2018-09-20T02:33:08.720Z,69.47
2018-09-20T02:33:34.879Z,69.38
2018-09-20T02:34:01.040Z,69.09
2018-09-20T02:34:27.200Z,69.18
2018-09-20T02:34:53.348Z,69.47
2018-09-20T02:35:19.488Z,69.47
2018-09-20T02:35:45.624Z,69.76
2018-09-20T02:36:11.759Z,68.99
2018-09-20T02:36:37.887Z,69.57
2018-09-20T02:37:04.026Z,69.09
2018-09-20T02:37:30.189Z,69.09
2018-09-20T02:37:56.340Z,69.57
2018-09-20T02:38:22.502Z,69.38
2018-09-20T02:38:48.636Z,69.57
2018-09-20T02:39:14.763Z,69.57
2018-09-20T02:39:40.900Z,69.85
2018-09-20T02:40:07.087Z,70.43
2018-09-20T02:40:33.245Z,69.85
2018-09-20T02:40:59.398Z,69.85
2018-09-20T02:41:25.533Z,69.85
2018-09-20T02:41:51.693Z,70.05
2018-09-20T02:42:17.855Z,70.05
2018-09-20T02:42:43.982Z,69.95
2018-09-20T02:43:10.135Z,69.95
2018-09-20T02:43:36.276Z,69.76
2018-09-20T02:44:02.429Z,70.05
2018-09-20T02:44:28.564Z,70.05
2018-09-20T02:44:54.694Z,70.34
2018-09-20T02:45:20.838Z,69.95
2018-09-20T02:45:46.968Z,69.85
2018-09-20T02:46:13.129Z,70.15
2018-09-20T02:46:39.284Z,70.34
2018-09-20T02:47:05.444Z,70.24
2018-09-20T02:47:31.578Z,70.24
2018-09-20T02:47:57.784Z,70.53
2018-09-20T02:48:23.947Z,70.34
2018-09-20T02:48:50.108Z,70.05
2018-09-20T02:49:16.237Z,69.95
2018-09-20T02:49:42.363Z,70.05
2018-09-20T02:50:08.526Z,70.43
2018-09-20T02:50:34.713Z,69.85
2018-09-20T02:51:00.872Z,69.95
2018-09-20T02:51:27.025Z,69.85
2018-09-20T02:51:53.272Z,69.28
2018-09-20T02:52:19.422Z,69.38
2018-09-20T02:52:45.573Z,69.28
2018-09-20T02:53:11.707Z,69.95
2018-09-20T02:53:37.864Z,69.67
2018-09-20T02:54:03.992Z,69.85
2018-09-20T02:54:30.146Z,69.76
2018-09-20T02:54:56.303Z,69.85
2018-09-20T02:55:22.480Z,69.67
2018-09-20T02:55:48.659Z,69.67
2018-09-20T02:56:14.823Z,69.85
2018-09-20T02:56:40.960Z,69.76
2018-09-20T02:57:07.113Z,69.67
2018-09-20T02:57:33.255Z,69.95
2018-09-20T02:57:59.406Z,70.53
2018-09-20T02:58:25.538Z,70.62
2018-09-20T02:58:51.679Z,70.53
2018-09-20T02:59:17.855Z,69.95
2018-09-20T02:59:44.022Z,70.05
2018-09-20T03:00:10.157Z,70.05
2018-09-20T03:00:36.338Z,70.05
2018-09-20T03:01:02.511Z,70.05
2018-09-20T03:01:28.671Z,70.24
2018-09-20T03:01:54.813Z,70.62
2018-09-20T03:02:20.971Z,70.34
2018-09-20T03:02:47.135Z,70.34
2018-09-20T03:03:13.279Z,70.62
2018-09-20T03:03:39.411Z,70.62
2018-09-20T03:04:05.570Z,70.72
2018-09-20T03:04:31.705Z,70.43
2018-09-20T03:04:57.834Z,70.34
2018-09-20T03:05:23.974Z,70.15
2018-09-20T03:05:50.106Z,70.53
2018-09-20T03:06:16.309Z,70.62
2018-09-20T03:06:42.470Z,70.34
2018-09-20T03:07:08.626Z,70.05
2018-09-20T03:07:34.781Z,70.05
2018-09-20T03:08:00.943Z,70.24
2018-09-20T03:08:27.082Z,70.62
2018-09-20T03:08:53.309Z,70.24
2018-09-20T03:09:19.422Z,70.43
2018-09-20T03:09:45.561Z,70.05
2018-09-20T03:10:11.689Z,70.24
2018-09-20T03:10:37.845Z,70.15
2018-09-20T03:11:03.983Z,70.05
2018-09-20T03:11:30.140Z,70.15
2018-09-20T03:11:56.297Z,71.3
2018-09-20T03:12:22.431Z,70.82
2018-09-20T03:12:48.617Z,70.72
2018-09-20T03:13:14.748Z,70.92
2018-09-20T03:13:40.906Z,71.3
2018-09-20T03:14:07.064Z,70.62
2018-09-20T03:14:33.204Z,70.15
2018-09-20T03:14:59.332Z,70.15
2018-09-20T03:15:25.471Z,70.43
2018-09-20T03:15:51.631Z,70.34
2018-09-20T03:16:17.783Z,70.24
2018-09-20T03:16:43.916Z,69.95
2018-09-20T03:17:10.051Z,69.76
2018-09-20T03:17:36.210Z,70.05
2018-09-20T03:18:02.361Z,70.62
2018-09-20T03:18:28.501Z,70.62
2018-09-20T03:18:54.687Z,70.24
2018-09-20T03:19:20.821Z,70.53
2018-09-20T03:19:47.029Z,70.15
2018-09-20T03:20:13.189Z,70.15
2018-09-20T03:20:39.376Z,70.43
2018-09-20T03:21:05.557Z,70.24
2018-09-20T03:21:31.686Z,70.24
2018-09-20T03:21:57.844Z,70.43
2018-09-20T03:22:24.002Z,70.34
2018-09-20T03:22:50.154Z,70.15
2018-09-20T03:23:16.316Z,70.34
2018-09-20T03:23:42.452Z,70.34
2018-09-20T03:24:08.632Z,70.72
2018-09-20T03:24:34.764Z,70.34
2018-09-20T03:25:00.922Z,70.62
2018-09-20T03:25:27.078Z,70.62
2018-09-20T03:25:53.285Z,70.43
2018-09-20T03:26:19.447Z,70.72
2018-09-20T03:26:45.603Z,70.72
2018-09-20T03:27:11.763Z,70.34
2018-09-20T03:27:37.899Z,70.62
2018-09-20T03:28:04.061Z,71.2
2018-09-20T03:28:30.218Z,70.72
2018-09-20T03:28:56.349Z,70.92
2018-09-20T03:29:22.508Z,71.01
2018-09-20T03:29:48.638Z,70.82
2018-09-20T03:30:14.811Z,71.01
2018-09-20T03:30:40.969Z,71.3
2018-09-20T03:31:07.068Z,71.01
2018-09-20T03:31:33.225Z,71.3
2018-09-20T03:31:59.359Z,71.3
2018-09-20T03:32:25.517Z,71.2
2018-09-20T03:32:51.693Z,71.4
2018-09-20T03:33:17.832Z,71.49
2018-09-20T03:33:43.960Z,71.01
2018-09-20T03:34:10.166Z,70.82
2018-09-20T03:34:36.317Z,70.62
2018-09-20T03:35:02.535Z,70.92
2018-09-20T03:35:28.733Z,70.82
2018-09-20T03:35:54.891Z,70.82
2018-09-20T03:36:21.026Z,70.82
2018-09-20T03:36:47.190Z,71.11
2018-09-20T03:37:13.321Z,71.3
2018-09-20T03:37:39.484Z,70.82
2018-09-20T03:38:05.627Z,71.01
2018-09-20T03:38:31.805Z,70.72
2018-09-20T03:38:57.931Z,70.62
2018-09-20T03:39:24.069Z,70.34
2018-09-20T03:39:50.221Z,70.15
2018-09-20T03:40:16.408Z,70.05
2018-09-20T03:40:42.544Z,70.34
2018-09-20T03:41:08.718Z,70.62
2018-09-20T03:41:34.851Z,70.15
2018-09-20T03:42:00.990Z,70.05
2018-09-20T03:42:27.149Z,70.43
2018-09-20T03:42:53.296Z,71.01
2018-09-20T03:43:19.463Z,70.34
2018-09-20T03:43:45.612Z,70.24
2018-09-20T03:44:11.776Z,70.62
2018-09-20T03:44:37.936Z,70.15
2018-09-20T03:45:04.114Z,70.15
2018-09-20T03:45:30.263Z,70.05
2018-09-20T03:45:56.421Z,70.24
2018-09-20T03:46:22.584Z,70.34
2018-09-20T03:46:48.743Z,70.24
2018-09-20T03:47:14.896Z,71.01
2018-09-20T03:47:41.075Z,70.62
2018-09-20T03:48:07.244Z,71.3
2018-09-20T03:48:33.400Z,71.3
2018-09-20T03:48:59.597Z,71.3
2018-09-20T03:49:25.783Z,71.3
2018-09-20T03:49:51.915Z,71.11
2018-09-20T03:50:18.046Z,70.82
2018-09-20T03:50:44.180Z,71.49
2018-09-20T03:51:10.312Z,71.69
2018-09-20T03:51:36.476Z,71.4
2018-09-20T03:52:02.630Z,71.4
2018-09-20T03:52:28.789Z,71.3
2018-09-20T03:52:54.943Z,71.3
2018-09-20T03:53:21.071Z,71.4
2018-09-20T03:53:47.255Z,71.3
2018-09-20T03:54:13.417Z,71.65
2018-09-20T03:54:39.601Z,72.03
2018-09-20T03:55:05.735Z,72.07
2018-09-20T03:55:31.946Z,71.75
2018-09-20T03:55:58.069Z,71.55
2018-09-20T03:56:24.224Z,71.94
2018-09-20T03:56:50.368Z,71.84
2018-09-20T03:57:16.554Z,72.03
2018-09-20T03:57:42.710Z,71.84
2018-09-20T03:58:08.892Z,71.55
2018-09-20T03:58:35.083Z,71.75
2018-09-20T03:59:01.215Z,71.46
2018-09-20T03:59:27.350Z,71.75
2018-09-20T03:59:53.505Z,71.84
2018-09-20T04:00:19.669Z,72.23
2018-09-20T04:00:45.823Z,72.23
2018-09-20T04:01:11.983Z,72.03
2018-09-20T04:01:38.120Z,72.32
2018-09-20T04:02:04.282Z,71.84
2018-09-20T04:02:30.441Z,71.84
2018-09-20T04:02:56.565Z,72.03
2018-09-20T04:03:22.724Z,71.65
2018-09-20T04:03:48.861Z,71.84
2018-09-20T04:04:14.984Z,71.75
2018-09-20T04:04:41.149Z,71.65
2018-09-20T04:05:07.349Z,71.46
2018-09-20T04:05:33.535Z,71.84
2018-09-20T04:05:59.700Z,71.75
2018-09-20T04:06:25.828Z,71.84
2018-09-20T04:06:51.968Z,72.32
2018-09-20T04:07:18.091Z,72.23
2018-09-20T04:07:44.253Z,72.52
2018-09-20T04:08:10.389Z,72.52
2018-09-20T04:08:36.554Z,73.19
2018-09-20T04:09:02.732Z,72.13
2018-09-20T04:09:28.912Z,72.23
2018-09-20T04:09:55.009Z,72.23
2018-09-20T04:10:21.141Z,71.94
2018-09-20T04:10:47.283Z,72.32
2018-09-20T04:11:13.435Z,72.13
2018-09-20T04:11:39.588Z,72.03
2018-09-20T04:12:05.724Z,72.32
2018-09-20T04:12:31.864Z,72.9
2018-09-20T04:12:58.017Z,72.03
2018-09-20T04:13:24.177Z,71.94
2018-09-20T04:13:50.337Z,72.32
2018-09-20T04:14:16.485Z,72.52
2018-09-20T04:14:42.651Z,72.42
2018-09-20T04:15:08.832Z,72.61
2018-09-20T04:15:34.984Z,72.61
2018-09-20T04:16:01.191Z,72.03
2018-09-20T04:16:27.424Z,72.03
2018-09-20T04:16:53.578Z,72.61
2018-09-20T04:17:19.735Z,72.61
2018-09-20T04:17:45.907Z,72.52
2018-09-20T04:18:12.094Z,72.71
2018-09-20T04:18:38.246Z,72.77
2018-09-20T04:19:04.405Z,72.52
2018-09-20T04:19:30.603Z,72.8
2018-09-20T04:19:56.737Z,73
2018-09-20T04:20:22.896Z,72.52
2018-09-20T04:20:49.034Z,72.61
2018-09-20T04:21:15.246Z,72.52
2018-09-20T04:21:41.373Z,72.23
2018-09-20T04:22:07.503Z,72.23
2018-09-20T04:22:33.662Z,72.19
2018-09-20T04:22:59.857Z,71.84
2018-09-20T04:23:25.933Z,72.48
2018-09-20T04:23:52.068Z,72.52
2018-09-20T04:24:18.225Z,72.61
2018-09-20T04:24:44.364Z,72.61
2018-09-20T04:25:10.498Z,72.42
2018-09-20T04:25:36.636Z,72.03
2018-09-20T04:26:02.820Z,72.61
2018-09-20T04:26:28.956Z,72.8
2018-09-20T04:26:55.081Z,72.48
2018-09-20T04:27:21.235Z,72.48
2018-09-20T04:27:47.396Z,72.8
2018-09-20T04:28:13.532Z,72.52
2018-09-20T04:28:39.666Z,72.61
2018-09-20T04:29:05.806Z,72.61
2018-09-20T04:29:31.961Z,72.8
2018-09-20T04:29:58.112Z,72.52
2018-09-20T04:30:24.263Z,71.75
2018-09-20T04:30:50.408Z,72.03
2018-09-20T04:31:16.537Z,72.42
2018-09-20T04:31:42.734Z,72.03
2018-09-20T04:32:08.869Z,71.94
2018-09-20T04:32:35.045Z,72.13
2018-09-20T04:33:01.186Z,72.13
2018-09-20T04:33:27.339Z,72.52
2018-09-20T04:33:53.501Z,72.03
2018-09-20T04:34:19.648Z,71.75
2018-09-20T04:34:45.800Z,72.03
2018-09-20T04:35:11.961Z,72.42
2018-09-20T04:35:38.118Z,72.13
2018-09-20T04:36:04.258Z,72.42
2018-09-20T04:36:30.411Z,72.8
2018-09-20T04:36:56.567Z,72.42
2018-09-20T04:37:22.730Z,72.23
2018-09-20T04:37:48.859Z,72.03
2018-09-20T04:38:15.026Z,72.61
2018-09-20T04:38:41.147Z,72.8
2018-09-20T04:39:07.283Z,72.8
2018-09-20T04:39:33.467Z,72.71
2018-09-20T04:39:59.608Z,72.61
2018-09-20T04:40:25.738Z,72.8
2018-09-20T04:40:51.897Z,71.94
2018-09-20T04:41:18.050Z,72.13
2018-09-20T04:41:44.189Z,72.23
2018-09-20T04:42:10.326Z,72.13
2018-09-20T04:42:36.479Z,72.13
2018-09-20T04:43:02.626Z,72.13
2018-09-20T04:43:28.800Z,71.84
2018-09-20T04:43:54.963Z,72.13
2018-09-20T04:44:21.089Z,72.03
2018-09-20T04:44:47.272Z,72.8
2018-09-20T04:45:13.402Z,72.13
2018-09-20T04:45:39.539Z,72.03
2018-09-20T04:46:05.673Z,72.13
2018-09-20T04:46:31.805Z,72.03
2018-09-20T04:46:57.967Z,72.23
2018-09-20T04:47:24.100Z,71.84
2018-09-20T04:47:50.231Z,72.61
2018-09-20T04:48:16.363Z,72.71
2018-09-20T04:48:42.500Z,72.71
2018-09-20T04:49:08.665Z,72.71
2018-09-20T04:49:34.821Z,72.71
2018-09-20T04:50:00.956Z,72.71
2018-09-20T04:50:27.095Z,72.61
2018-09-20T04:50:53.236Z,73.09
2018-09-20T04:51:19.372Z,73
2018-09-20T04:51:45.502Z,72.77
2018-09-20T04:52:11.643Z,72.52
2018-09-20T04:52:37.775Z,72.61
2018-09-20T04:53:03.930Z,72.48
2018-09-20T04:53:30.191Z,72.42
2018-09-20T04:53:56.226Z,72.61
2018-09-20T04:54:22.362Z,72.42
2018-09-20T04:54:48.495Z,72.61
2018-09-20T04:55:14.656Z,72.71
2018-09-20T04:55:40.815Z,72.9
2018-09-20T04:56:06.946Z,72.8
2018-09-20T04:56:33.082Z,72.61
2018-09-20T04:56:59.223Z,72.52
2018-09-20T04:57:25.353Z,72.52
2018-09-20T04:57:51.487Z,72.96
2018-09-20T04:58:17.650Z,72.42
2018-09-20T04:58:43.782Z,72.52
2018-09-20T04:59:09.917Z,72.42
2018-09-20T04:59:36.074Z,72.61
2018-09-20T05:00:02.350Z,72.52
2018-09-20T05:00:28.426Z,72.61
2018-09-20T05:00:54.584Z,72.52
2018-09-20T05:01:20.724Z,72.61
2018-09-20T05:01:46.883Z,73.28
2018-09-20T05:02:13.030Z,73.09
2018-09-20T05:02:39.161Z,73
2018-09-20T05:03:05.324Z,73.09
2018-09-20T05:03:31.462Z,73.19
2018-09-20T05:03:57.625Z,73.09
2018-09-20T05:04:23.783Z,72.8
2018-09-20T05:04:49.918Z,72.86
2018-09-20T05:05:16.055Z,73.28
2018-09-20T05:05:42.191Z,72.61
2018-09-20T05:06:08.330Z,72.52
2018-09-20T05:06:34.463Z,73.09
2018-09-20T05:07:00.619Z,73.38
2018-09-20T05:07:26.757Z,72.42
2018-09-20T05:07:52.888Z,72.52
2018-09-20T05:08:19.023Z,73.09
2018-09-20T05:08:45.182Z,72.71
2018-09-20T05:09:11.321Z,73.09
2018-09-20T05:09:37.635Z,73
2018-09-20T05:10:03.621Z,72.9
2018-09-20T05:10:29.751Z,73.19
2018-09-20T05:10:55.884Z,73
2018-09-20T05:11:22.042Z,73.19
2018-09-20T05:11:48.187Z,73.28
2018-09-20T05:12:14.322Z,73
2018-09-20T05:12:40.478Z,73.28
2018-09-20T05:13:06.608Z,73.28
2018-09-20T05:13:32.794Z,73.09
2018-09-20T05:13:58.916Z,73.19
2018-09-20T05:14:25.050Z,73
2018-09-20T05:14:51.187Z,73
2018-09-20T05:15:17.326Z,73.09
2018-09-20T05:15:43.482Z,72.9
2018-09-20T05:16:09.629Z,72.9
2018-09-20T05:16:35.759Z,73.54
2018-09-20T05:17:01.899Z,73.63
2018-09-20T05:17:28.056Z,73.73
2018-09-20T05:17:54.190Z,73.54
2018-09-20T05:18:20.327Z,73.44
2018-09-20T05:18:46.454Z,73.73
2018-09-20T05:19:12.588Z,73.54
2018-09-20T05:19:38.743Z,73.35
2018-09-20T05:20:04.908Z,73.73
2018-09-20T05:20:31.071Z,73.83
2018-09-20T05:20:57.225Z,73.44
2018-09-20T05:21:23.363Z,73.44
2018-09-20T05:21:49.526Z,73.57
2018-09-20T05:22:15.663Z,73.73
2018-09-20T05:22:41.798Z,73.92
2018-09-20T05:23:07.955Z,73.57
2018-09-20T05:23:34.094Z,73.67
2018-09-20T05:24:00.226Z,73.47
2018-09-20T05:24:26.366Z,73.09
2018-09-20T05:24:52.492Z,72.71
2018-09-20T05:25:18.635Z,73.38
2018-09-20T05:25:44.760Z,73.09
2018-09-20T05:26:10.927Z,73.09
2018-09-20T05:26:37.084Z,73.19
2018-09-20T05:27:03.215Z,72.8
2018-09-20T05:27:29.347Z,73
2018-09-20T05:27:55.486Z,73.67
2018-09-20T05:28:21.623Z,73.57
2018-09-20T05:28:47.759Z,73.44
2018-09-20T05:29:13.900Z,73.35
2018-09-20T05:29:40.031Z,73.44
2018-09-20T05:30:06.174Z,73.54
2018-09-20T05:30:32.305Z,73.44
2018-09-20T05:30:58.440Z,73.63
2018-09-20T05:31:24.577Z,73.35
2018-09-20T05:31:50.710Z,73.63
2018-09-20T05:32:16.893Z,73.63
2018-09-20T05:32:42.976Z,73.73
2018-09-20T05:33:09.126Z,73.73
2018-09-20T05:33:35.250Z,73.28
2018-09-20T05:34:01.406Z,73.15
2018-09-20T05:34:27.544Z,73.73
2018-09-20T05:34:53.677Z,73.63
2018-09-20T05:35:19.853Z,73.57
2018-09-20T05:35:46.006Z,73.47
2018-09-20T05:36:12.138Z,73.19
2018-09-20T05:36:38.276Z,72.9
2018-09-20T05:37:04.410Z,73
2018-09-20T05:37:30.562Z,73.09
2018-09-20T05:37:56.704Z,73
2018-09-20T05:38:22.833Z,72.9